sensor_id;sensor_type;location;lat;lon;timestamp;P1;durP1;ratioP1;P2;durP2;ratioP2
68140;SDS011;54941;52.220;104.306;2022-07-21T00:01:53;8.57;;;4.25;;
68140;SDS011;54941;52.220;104.306;2022-07-21T00:04:19;13.52;;;4.63;;
68140;SDS011;54941;52.220;104.306;2022-07-21T00:06:46;8.27;;;4.72;;
68140;SDS011;54941;52.220;104.306;2022-07-21T00:09:13;8.57;;;4.13;;
68140;SDS011;54941;52.220;104.306;2022-07-21T00:11:40;7.90;;;4.63;;
68140;SDS011;54941;52.220;104.306;2022-07-21T00:14:08;7.72;;;4.53;;
68140;SDS011;54941;52.220;104.306;2022-07-21T00:16:35;10.70;;;4.70;;
68140;SDS011;54941;52.220;104.306;2022-07-21T00:19:02;8.32;;;4.22;;
68140;SDS011;54941;52.220;104.306;2022-07-21T00:21:29;6.82;;;4.38;;
68140;SDS011;54941;52.220;104.306;2022-07-21T00:23:55;7.75;;;4.70;;
68140;SDS011;54941;52.220;104.306;2022-07-21T00:26:21;11.43;;;4.70;;
68140;SDS011;54941;52.220;104.306;2022-07-21T00:28:47;8.60;;;4.32;;
68140;SDS011;54941;52.220;104.306;2022-07-21T00:31:14;6.20;;;4.30;;
68140;SDS011;54941;52.220;104.306;2022-07-21T00:33:41;8.63;;;4.38;;
68140;SDS011;54941;52.220;104.306;2022-07-21T00:36:07;7.90;;;4.30;;
68140;SDS011;54941;52.220;104.306;2022-07-21T00:38:34;9.38;;;5.05;;
68140;SDS011;54941;52.220;104.306;2022-07-21T00:41:00;10.00;;;4.80;;
68140;SDS011;54941;52.220;104.306;2022-07-21T00:43:27;6.63;;;4.50;;
68140;SDS011;54941;52.220;104.306;2022-07-21T00:45:53;9.15;;;4.82;;
68140;SDS011;54941;52.220;104.306;2022-07-21T00:48:20;6.72;;;4.82;;
68140;SDS011;54941;52.220;104.306;2022-07-21T00:50:47;8.10;;;4.55;;
68140;SDS011;54941;52.220;104.306;2022-07-21T00:53:14;9.30;;;5.00;;
68140;SDS011;54941;52.220;104.306;2022-07-21T00:55:43;11.70;;;5.43;;
68140;SDS011;54941;52.220;104.306;2022-07-21T00:58:10;7.60;;;4.72;;
68140;SDS011;54941;52.220;104.306;2022-07-21T01:00:37;10.52;;;4.93;;
68140;SDS011;54941;52.220;104.306;2022-07-21T01:03:03;7.40;;;4.90;;
68140;SDS011;54941;52.220;104.306;2022-07-21T01:05:29;6.35;;;4.30;;
68140;SDS011;54941;52.220;104.306;2022-07-21T01:07:56;10.45;;;5.13;;
68140;SDS011;54941;52.220;104.306;2022-07-21T01:10:23;10.63;;;4.70;;
68140;SDS011;54941;52.220;104.306;2022-07-21T01:12:50;6.53;;;4.43;;
68140;SDS011;54941;52.220;104.306;2022-07-21T01:15:17;8.05;;;4.60;;
68140;SDS011;54941;52.220;104.306;2022-07-21T01:20:13;8.68;;;4.05;;
68140;SDS011;54941;52.220;104.306;2022-07-21T01:22:42;11.60;;;4.85;;
68140;SDS011;54941;52.220;104.306;2022-07-21T01:25:11;5.90;;;4.13;;
68140;SDS011;54941;52.220;104.306;2022-07-21T01:27:38;7.18;;;4.65;;
68140;SDS011;54941;52.220;104.306;2022-07-21T01:30:05;7.40;;;4.72;;
68140;SDS011;54941;52.220;104.306;2022-07-21T01:32:37;8.48;;;4.68;;
68140;SDS011;54941;52.220;104.306;2022-07-21T01:35:05;7.20;;;4.28;;
68140;SDS011;54941;52.220;104.306;2022-07-21T01:37:33;8.13;;;4.90;;
68140;SDS011;54941;52.220;104.306;2022-07-21T01:40:03;7.90;;;4.60;;
68140;SDS011;54941;52.220;104.306;2022-07-21T01:42:29;7.43;;;4.40;;
68140;SDS011;54941;52.220;104.306;2022-07-21T01:44:55;7.65;;;4.88;;
68140;SDS011;54941;52.220;104.306;2022-07-21T01:47:22;15.38;;;8.43;;
68140;SDS011;54941;52.220;104.306;2022-07-21T01:49:48;14.52;;;8.10;;
68140;SDS011;54941;52.220;104.306;2022-07-21T01:52:15;13.95;;;7.88;;
68140;SDS011;54941;52.220;104.306;2022-07-21T01:54:41;15.70;;;9.07;;
68140;SDS011;54941;52.220;104.306;2022-07-21T01:57:09;14.88;;;8.60;;
68140;SDS011;54941;52.220;104.306;2022-07-21T01:59:35;17.08;;;9.73;;
68140;SDS011;54941;52.220;104.306;2022-07-21T02:02:02;16.02;;;9.70;;
68140;SDS011;54941;52.220;104.306;2022-07-21T02:04:28;15.18;;;8.13;;
68140;SDS011;54941;52.220;104.306;2022-07-21T02:06:54;13.40;;;7.97;;
68140;SDS011;54941;52.220;104.306;2022-07-21T02:09:21;13.50;;;8.25;;
68140;SDS011;54941;52.220;104.306;2022-07-21T02:11:47;15.85;;;8.70;;
68140;SDS011;54941;52.220;104.306;2022-07-21T02:14:13;12.27;;;7.38;;
68140;SDS011;54941;52.220;104.306;2022-07-21T02:16:39;12.32;;;7.15;;
68140;SDS011;54941;52.220;104.306;2022-07-21T02:19:05;14.00;;;7.40;;
68140;SDS011;54941;52.220;104.306;2022-07-21T02:24:00;16.65;;;9.07;;
68140;SDS011;54941;52.220;104.306;2022-07-21T02:26:26;14.45;;;8.48;;
68140;SDS011;54941;52.220;104.306;2022-07-21T02:28:52;15.82;;;8.60;;
68140;SDS011;54941;52.220;104.306;2022-07-21T02:31:18;21.58;;;10.13;;
68140;SDS011;54941;52.220;104.306;2022-07-21T02:33:44;14.20;;;8.40;;
68140;SDS011;54941;52.220;104.306;2022-07-21T02:36:11;17.48;;;9.70;;
68140;SDS011;54941;52.220;104.306;2022-07-21T02:38:37;15.65;;;8.02;;
68140;SDS011;54941;52.220;104.306;2022-07-21T02:41:03;11.15;;;7.60;;
68140;SDS011;54941;52.220;104.306;2022-07-21T02:43:30;11.80;;;6.28;;
68140;SDS011;54941;52.220;104.306;2022-07-21T02:45:56;12.60;;;6.63;;
68140;SDS011;54941;52.220;104.306;2022-07-21T02:48:22;14.55;;;7.05;;
68140;SDS011;54941;52.220;104.306;2022-07-21T02:50:48;12.73;;;6.57;;
68140;SDS011;54941;52.220;104.306;2022-07-21T02:53:16;13.98;;;7.35;;
68140;SDS011;54941;52.220;104.306;2022-07-21T02:55:44;11.63;;;7.65;;
68140;SDS011;54941;52.220;104.306;2022-07-21T02:58:13;15.73;;;9.43;;
68140;SDS011;54941;52.220;104.306;2022-07-21T03:00:54;15.05;;;8.30;;
68140;SDS011;54941;52.220;104.306;2022-07-21T03:03:26;14.90;;;7.95;;
68140;SDS011;54941;52.220;104.306;2022-07-21T03:05:54;15.50;;;8.60;;
68140;SDS011;54941;52.220;104.306;2022-07-21T03:08:21;10.40;;;6.97;;
68140;SDS011;54941;52.220;104.306;2022-07-21T03:10:47;13.50;;;7.72;;
68140;SDS011;54941;52.220;104.306;2022-07-21T03:13:14;14.32;;;7.30;;
68140;SDS011;54941;52.220;104.306;2022-07-21T03:15:40;13.85;;;6.72;;
68140;SDS011;54941;52.220;104.306;2022-07-21T03:18:07;10.80;;;6.78;;
68140;SDS011;54941;52.220;104.306;2022-07-21T03:20:35;11.82;;;6.40;;
68140;SDS011;54941;52.220;104.306;2022-07-21T03:23:03;14.48;;;7.43;;
68140;SDS011;54941;52.220;104.306;2022-07-21T03:25:29;10.45;;;6.50;;
68140;SDS011;54941;52.220;104.306;2022-07-21T03:27:56;14.00;;;6.90;;
68140;SDS011;54941;52.220;104.306;2022-07-21T03:30:22;14.15;;;6.68;;
68140;SDS011;54941;52.220;104.306;2022-07-21T03:32:49;11.40;;;6.93;;
68140;SDS011;54941;52.220;104.306;2022-07-21T03:35:16;11.27;;;6.82;;
68140;SDS011;54941;52.220;104.306;2022-07-21T03:37:44;10.75;;;6.78;;
68140;SDS011;54941;52.220;104.306;2022-07-21T03:40:13;10.75;;;6.63;;
68140;SDS011;54941;52.220;104.306;2022-07-21T03:42:41;10.90;;;6.13;;
68140;SDS011;54941;52.220;104.306;2022-07-21T03:45:07;12.75;;;6.38;;
68140;SDS011;54941;52.220;104.306;2022-07-21T03:47:35;15.43;;;6.35;;
68140;SDS011;54941;52.220;104.306;2022-07-21T03:50:02;12.20;;;6.32;;
68140;SDS011;54941;52.220;104.306;2022-07-21T03:52:29;10.63;;;6.65;;
68140;SDS011;54941;52.220;104.306;2022-07-21T03:54:55;19.42;;;7.93;;
68140;SDS011;54941;52.220;104.306;2022-07-21T03:57:23;11.20;;;6.80;;
68140;SDS011;54941;52.220;104.306;2022-07-21T03:59:49;14.07;;;7.07;;
68140;SDS011;54941;52.220;104.306;2022-07-21T04:02:15;12.32;;;6.53;;
68140;SDS011;54941;52.220;104.306;2022-07-21T04:04:41;11.25;;;6.75;;
68140;SDS011;54941;52.220;104.306;2022-07-21T04:07:07;9.57;;;6.35;;
68140;SDS011;54941;52.220;104.306;2022-07-21T04:09:33;19.75;;;6.65;;
68140;SDS011;54941;52.220;104.306;2022-07-21T04:11:59;11.38;;;5.97;;
68140;SDS011;54941;52.220;104.306;2022-07-21T04:14:31;9.35;;;6.18;;
68140;SDS011;54941;52.220;104.306;2022-07-21T04:16:57;9.88;;;6.05;;
68140;SDS011;54941;52.220;104.306;2022-07-21T04:19:23;10.50;;;5.93;;
68140;SDS011;54941;52.220;104.306;2022-07-21T04:21:49;11.20;;;6.22;;
68140;SDS011;54941;52.220;104.306;2022-07-21T04:24:15;10.15;;;6.10;;
68140;SDS011;54941;52.220;104.306;2022-07-21T04:26:42;10.65;;;6.90;;
68140;SDS011;54941;52.220;104.306;2022-07-21T04:29:08;9.93;;;5.82;;
68140;SDS011;54941;52.220;104.306;2022-07-21T04:31:34;11.00;;;6.35;;
68140;SDS011;54941;52.220;104.306;2022-07-21T04:34:00;11.85;;;6.32;;
68140;SDS011;54941;52.220;104.306;2022-07-21T04:36:26;11.10;;;6.13;;
68140;SDS011;54941;52.220;104.306;2022-07-21T04:38:52;12.75;;;5.82;;
68140;SDS011;54941;52.220;104.306;2022-07-21T04:41:18;8.77;;;5.28;;
68140;SDS011;54941;52.220;104.306;2022-07-21T04:43:44;11.27;;;5.55;;
68140;SDS011;54941;52.220;104.306;2022-07-21T04:46:10;10.88;;;5.40;;
68140;SDS011;54941;52.220;104.306;2022-07-21T04:48:37;10.80;;;5.45;;
68140;SDS011;54941;52.220;104.306;2022-07-21T04:51:04;10.88;;;5.03;;
68140;SDS011;54941;52.220;104.306;2022-07-21T04:53:30;11.40;;;5.05;;
68140;SDS011;54941;52.220;104.306;2022-07-21T04:55:56;8.25;;;4.68;;
68140;SDS011;54941;52.220;104.306;2022-07-21T04:58:22;6.97;;;4.78;;
68140;SDS011;54941;52.220;104.306;2022-07-21T05:00:48;6.72;;;4.60;;
68140;SDS011;54941;52.220;104.306;2022-07-21T05:03:15;7.13;;;3.60;;
68140;SDS011;54941;52.220;104.306;2022-07-21T05:05:42;6.45;;;3.63;;
68140;SDS011;54941;52.220;104.306;2022-07-21T05:08:08;6.47;;;3.95;;
68140;SDS011;54941;52.220;104.306;2022-07-21T05:10:34;4.93;;;3.88;;
68140;SDS011;54941;52.220;104.306;2022-07-21T05:13:00;6.35;;;3.78;;
68140;SDS011;54941;52.220;104.306;2022-07-21T05:15:26;5.70;;;3.85;;
68140;SDS011;54941;52.220;104.306;2022-07-21T05:17:52;5.85;;;3.97;;
68140;SDS011;54941;52.220;104.306;2022-07-21T05:20:18;6.93;;;4.30;;
68140;SDS011;54941;52.220;104.306;2022-07-21T05:22:45;6.38;;;4.32;;
68140;SDS011;54941;52.220;104.306;2022-07-21T05:25:11;8.52;;;4.32;;
68140;SDS011;54941;52.220;104.306;2022-07-21T05:27:37;5.82;;;4.13;;
68140;SDS011;54941;52.220;104.306;2022-07-21T05:30:03;8.07;;;5.00;;
68140;SDS011;54941;52.220;104.306;2022-07-21T05:32:32;12.15;;;5.18;;
68140;SDS011;54941;52.220;104.306;2022-07-21T05:34:58;8.60;;;4.90;;
68140;SDS011;54941;52.220;104.306;2022-07-21T05:37:24;11.60;;;4.93;;
68140;SDS011;54941;52.220;104.306;2022-07-21T05:39:50;5.60;;;3.85;;
68140;SDS011;54941;52.220;104.306;2022-07-21T05:42:17;7.63;;;4.05;;
68140;SDS011;54941;52.220;104.306;2022-07-21T05:44:43;6.95;;;4.20;;
68140;SDS011;54941;52.220;104.306;2022-07-21T05:47:09;9.98;;;4.47;;
68140;SDS011;54941;52.220;104.306;2022-07-21T05:49:35;6.55;;;4.28;;
68140;SDS011;54941;52.220;104.306;2022-07-21T05:52:01;7.10;;;4.30;;
68140;SDS011;54941;52.220;104.306;2022-07-21T05:54:27;5.90;;;3.78;;
68140;SDS011;54941;52.220;104.306;2022-07-21T05:56:54;6.20;;;4.07;;
68140;SDS011;54941;52.220;104.306;2022-07-21T05:59:20;6.53;;;3.95;;
68140;SDS011;54941;52.220;104.306;2022-07-21T06:01:46;10.77;;;5.18;;
68140;SDS011;54941;52.220;104.306;2022-07-21T06:04:12;7.93;;;4.63;;
68140;SDS011;54941;52.220;104.306;2022-07-21T06:06:38;6.47;;;4.50;;
68140;SDS011;54941;52.220;104.306;2022-07-21T06:09:04;7.97;;;5.20;;
68140;SDS011;54941;52.220;104.306;2022-07-21T06:11:30;6.63;;;4.60;;
68140;SDS011;54941;52.220;104.306;2022-07-21T06:13:56;6.43;;;4.65;;
68140;SDS011;54941;52.220;104.306;2022-07-21T06:16:23;6.78;;;4.50;;
68140;SDS011;54941;52.220;104.306;2022-07-21T06:18:49;6.65;;;4.60;;
68140;SDS011;54941;52.220;104.306;2022-07-21T06:21:15;5.70;;;4.15;;
68140;SDS011;54941;52.220;104.306;2022-07-21T06:23:41;5.25;;;3.47;;
68140;SDS011;54941;52.220;104.306;2022-07-21T06:26:07;5.30;;;3.78;;
68140;SDS011;54941;52.220;104.306;2022-07-21T06:28:33;8.02;;;3.90;;
68140;SDS011;54941;52.220;104.306;2022-07-21T06:30:59;6.65;;;3.72;;
68140;SDS011;54941;52.220;104.306;2022-07-21T06:33:25;4.25;;;3.33;;
68140;SDS011;54941;52.220;104.306;2022-07-21T06:35:51;6.50;;;3.90;;
68140;SDS011;54941;52.220;104.306;2022-07-21T06:38:18;9.10;;;4.03;;
68140;SDS011;54941;52.220;104.306;2022-07-21T06:40:44;4.50;;;3.58;;
68140;SDS011;54941;52.220;104.306;2022-07-21T06:43:10;5.97;;;3.80;;
68140;SDS011;54941;52.220;104.306;2022-07-21T06:45:37;6.13;;;3.75;;
68140;SDS011;54941;52.220;104.306;2022-07-21T06:48:04;6.22;;;4.15;;
68140;SDS011;54941;52.220;104.306;2022-07-21T06:50:31;6.55;;;4.60;;
68140;SDS011;54941;52.220;104.306;2022-07-21T06:52:58;6.15;;;4.20;;
68140;SDS011;54941;52.220;104.306;2022-07-21T06:55:24;5.68;;;3.70;;
68140;SDS011;54941;52.220;104.306;2022-07-21T06:57:51;5.95;;;3.60;;
68140;SDS011;54941;52.220;104.306;2022-07-21T07:00:17;5.15;;;3.83;;
68140;SDS011;54941;52.220;104.306;2022-07-21T07:02:43;5.47;;;3.60;;
68140;SDS011;54941;52.220;104.306;2022-07-21T07:05:09;4.93;;;3.53;;
68140;SDS011;54941;52.220;104.306;2022-07-21T07:07:41;5.15;;;3.63;;
68140;SDS011;54941;52.220;104.306;2022-07-21T07:10:08;5.93;;;3.80;;
68140;SDS011;54941;52.220;104.306;2022-07-21T07:12:34;6.60;;;4.28;;
68140;SDS011;54941;52.220;104.306;2022-07-21T07:15:01;7.10;;;4.55;;
68140;SDS011;54941;52.220;104.306;2022-07-21T07:17:29;5.65;;;4.20;;
68140;SDS011;54941;52.220;104.306;2022-07-21T07:19:55;5.75;;;3.63;;
68140;SDS011;54941;52.220;104.306;2022-07-21T07:22:21;5.50;;;3.72;;
68140;SDS011;54941;52.220;104.306;2022-07-21T07:24:47;4.97;;;3.38;;
68140;SDS011;54941;52.220;104.306;2022-07-21T07:27:13;4.97;;;3.75;;
68140;SDS011;54941;52.220;104.306;2022-07-21T07:29:39;6.20;;;4.20;;
68140;SDS011;54941;52.220;104.306;2022-07-21T07:32:06;7.80;;;4.72;;
68140;SDS011;54941;52.220;104.306;2022-07-21T07:34:32;7.53;;;4.93;;
68140;SDS011;54941;52.220;104.306;2022-07-21T07:36:58;9.40;;;5.35;;
68140;SDS011;54941;52.220;104.306;2022-07-21T07:39:26;8.75;;;4.95;;
68140;SDS011;54941;52.220;104.306;2022-07-21T07:41:52;9.05;;;5.88;;
68140;SDS011;54941;52.220;104.306;2022-07-21T07:44:18;5.00;;;3.35;;
68140;SDS011;54941;52.220;104.306;2022-07-21T07:46:44;4.75;;;3.15;;
68140;SDS011;54941;52.220;104.306;2022-07-21T07:49:10;5.70;;;3.40;;
68140;SDS011;54941;52.220;104.306;2022-07-21T07:51:36;4.90;;;2.72;;
68140;SDS011;54941;52.220;104.306;2022-07-21T07:54:02;3.80;;;2.83;;
68140;SDS011;54941;52.220;104.306;2022-07-21T07:56:29;5.00;;;2.88;;
68140;SDS011;54941;52.220;104.306;2022-07-21T07:58:55;3.58;;;2.72;;
68140;SDS011;54941;52.220;104.306;2022-07-21T08:01:22;3.92;;;2.97;;
68140;SDS011;54941;52.220;104.306;2022-07-21T08:03:48;6.15;;;3.13;;
68140;SDS011;54941;52.220;104.306;2022-07-21T08:06:14;7.32;;;3.45;;
68140;SDS011;54941;52.220;104.306;2022-07-21T08:08:40;4.63;;;3.30;;
68140;SDS011;54941;52.220;104.306;2022-07-21T08:11:06;4.68;;;3.40;;
68140;SDS011;54941;52.220;104.306;2022-07-21T08:13:32;6.70;;;3.10;;
68140;SDS011;54941;52.220;104.306;2022-07-21T08:15:59;3.90;;;2.88;;
68140;SDS011;54941;52.220;104.306;2022-07-21T08:18:25;4.72;;;2.95;;
68140;SDS011;54941;52.220;104.306;2022-07-21T08:20:51;5.35;;;2.95;;
68140;SDS011;54941;52.220;104.306;2022-07-21T08:23:17;6.72;;;3.33;;
68140;SDS011;54941;52.220;104.306;2022-07-21T08:25:43;6.78;;;3.78;;
68140;SDS011;54941;52.220;104.306;2022-07-21T08:28:10;6.50;;;3.42;;
68140;SDS011;54941;52.220;104.306;2022-07-21T08:30:37;4.63;;;3.10;;
68140;SDS011;54941;52.220;104.306;2022-07-21T08:33:03;5.22;;;3.03;;
68140;SDS011;54941;52.220;104.306;2022-07-21T08:35:30;5.68;;;3.40;;
68140;SDS011;54941;52.220;104.306;2022-07-21T08:40:25;4.95;;;3.58;;
68140;SDS011;54941;52.220;104.306;2022-07-21T08:42:53;5.63;;;2.92;;
68140;SDS011;54941;52.220;104.306;2022-07-21T08:45:20;4.85;;;3.40;;
68140;SDS011;54941;52.220;104.306;2022-07-21T08:47:54;5.15;;;3.65;;
68140;SDS011;54941;52.220;104.306;2022-07-21T08:50:22;6.80;;;3.63;;
68140;SDS011;54941;52.220;104.306;2022-07-21T08:52:49;4.75;;;3.35;;
68140;SDS011;54941;52.220;104.306;2022-07-21T08:55:16;5.82;;;3.70;;
68140;SDS011;54941;52.220;104.306;2022-07-21T08:57:45;5.30;;;3.65;;
68140;SDS011;54941;52.220;104.306;2022-07-21T09:00:11;4.50;;;3.25;;
68140;SDS011;54941;52.220;104.306;2022-07-21T09:02:38;5.78;;;3.72;;
68140;SDS011;54941;52.220;104.306;2022-07-21T09:05:05;8.02;;;5.07;;
68140;SDS011;54941;52.220;104.306;2022-07-21T09:07:52;6.40;;;4.38;;
68140;SDS011;54941;52.220;104.306;2022-07-21T09:10:26;5.75;;;4.03;;
68140;SDS011;54941;52.220;104.306;2022-07-21T09:12:55;5.43;;;3.80;;
68140;SDS011;54941;52.220;104.306;2022-07-21T09:15:23;5.70;;;3.65;;
68140;SDS011;54941;52.220;104.306;2022-07-21T09:20:38;6.50;;;4.10;;
68140;SDS011;54941;52.220;104.306;2022-07-21T09:23:12;4.80;;;3.78;;
68140;SDS011;54941;52.220;104.306;2022-07-21T09:25:45;5.28;;;3.20;;
68140;SDS011;54941;52.220;104.306;2022-07-21T09:28:15;7.82;;;3.70;;
68140;SDS011;54941;52.220;104.306;2022-07-21T09:30:50;5.28;;;3.70;;
68140;SDS011;54941;52.220;104.306;2022-07-21T09:33:20;7.32;;;3.95;;
68140;SDS011;54941;52.220;104.306;2022-07-21T09:38:50;5.18;;;3.47;;
68140;SDS011;54941;52.220;104.306;2022-07-21T09:41:22;5.97;;;3.72;;
68140;SDS011;54941;52.220;104.306;2022-07-21T09:43:51;7.43;;;4.25;;
68140;SDS011;54941;52.220;104.306;2022-07-21T09:46:22;6.93;;;3.90;;
68140;SDS011;54941;52.220;104.306;2022-07-21T09:48:55;7.97;;;4.53;;
68140;SDS011;54941;52.220;104.306;2022-07-21T09:51:30;6.90;;;5.22;;
68140;SDS011;54941;52.220;104.306;2022-07-21T09:56:32;6.72;;;4.43;;
68140;SDS011;54941;52.220;104.306;2022-07-21T09:59:00;8.27;;;5.10;;
68140;SDS011;54941;52.220;104.306;2022-07-21T10:01:28;9.95;;;5.68;;
68140;SDS011;54941;52.220;104.306;2022-07-21T10:03:55;9.98;;;6.68;;
68140;SDS011;54941;52.220;104.306;2022-07-21T10:06:26;9.98;;;6.75;;
68140;SDS011;54941;52.220;104.306;2022-07-21T10:08:55;6.07;;;3.67;;
68140;SDS011;54941;52.220;104.306;2022-07-21T10:11:22;8.00;;;4.18;;
68140;SDS011;54941;52.220;104.306;2022-07-21T10:13:50;6.63;;;3.70;;
68140;SDS011;54941;52.220;104.306;2022-07-21T10:16:16;5.65;;;3.35;;
68140;SDS011;54941;52.220;104.306;2022-07-21T10:18:58;4.82;;;3.22;;
68140;SDS011;54941;52.220;104.306;2022-07-21T10:24:17;5.00;;;3.40;;
68140;SDS011;54941;52.220;104.306;2022-07-21T10:32:16;6.15;;;3.47;;
68140;SDS011;54941;52.220;104.306;2022-07-21T10:34:44;5.38;;;3.33;;
68140;SDS011;54941;52.220;104.306;2022-07-21T10:37:12;6.13;;;3.92;;
68140;SDS011;54941;52.220;104.306;2022-07-21T10:40:51;5.97;;;3.80;;
68140;SDS011;54941;52.220;104.306;2022-07-21T10:45:39;5.50;;;3.70;;
68140;SDS011;54941;52.220;104.306;2022-07-21T10:48:08;7.72;;;3.50;;
68140;SDS011;54941;52.220;104.306;2022-07-21T10:51:02;6.57;;;3.55;;
68140;SDS011;54941;52.220;104.306;2022-07-21T10:53:31;5.70;;;3.72;;
68140;SDS011;54941;52.220;104.306;2022-07-21T10:55:58;5.32;;;3.00;;
68140;SDS011;54941;52.220;104.306;2022-07-21T10:58:28;6.30;;;3.35;;
68140;SDS011;54941;52.220;104.306;2022-07-21T11:01:39;4.80;;;3.50;;
68140;SDS011;54941;52.220;104.306;2022-07-21T11:04:06;6.10;;;3.78;;
68140;SDS011;54941;52.220;104.306;2022-07-21T11:06:39;5.50;;;3.75;;
68140;SDS011;54941;52.220;104.306;2022-07-21T11:14:13;5.65;;;4.00;;
68140;SDS011;54941;52.220;104.306;2022-07-21T11:22:19;7.10;;;3.63;;
68140;SDS011;54941;52.220;104.306;2022-07-21T11:27:31;5.55;;;3.47;;
68140;SDS011;54941;52.220;104.306;2022-07-21T11:29:59;5.53;;;3.10;;
68140;SDS011;54941;52.220;104.306;2022-07-21T11:32:30;7.30;;;3.10;;
68140;SDS011;54941;52.220;104.306;2022-07-21T11:35:01;4.43;;;3.03;;
68140;SDS011;54941;52.220;104.306;2022-07-21T11:37:35;5.57;;;3.03;;
68140;SDS011;54941;52.220;104.306;2022-07-21T11:40:04;7.10;;;3.00;;
68140;SDS011;54941;52.220;104.306;2022-07-21T11:42:32;5.20;;;3.03;;
68140;SDS011;54941;52.220;104.306;2022-07-21T11:44:59;4.80;;;2.58;;
68140;SDS011;54941;52.220;104.306;2022-07-21T11:47:25;6.18;;;3.05;;
68140;SDS011;54941;52.220;104.306;2022-07-21T11:49:56;5.80;;;2.75;;
68140;SDS011;54941;52.220;104.306;2022-07-21T11:52:31;4.85;;;2.50;;
68140;SDS011;54941;52.220;104.306;2022-07-21T11:55:00;5.35;;;3.28;;
68140;SDS011;54941;52.220;104.306;2022-07-21T11:57:29;4.53;;;2.58;;
68140;SDS011;54941;52.220;104.306;2022-07-21T12:02:28;5.70;;;3.50;;
68140;SDS011;54941;52.220;104.306;2022-07-21T12:05:01;6.05;;;3.65;;
68140;SDS011;54941;52.220;104.306;2022-07-21T12:07:30;5.85;;;3.38;;
68140;SDS011;54941;52.220;104.306;2022-07-21T12:10:06;5.38;;;3.45;;
68140;SDS011;54941;52.220;104.306;2022-07-21T12:13:07;6.18;;;3.45;;
68140;SDS011;54941;52.220;104.306;2022-07-21T12:15:32;5.65;;;3.40;;
68140;SDS011;54941;52.220;104.306;2022-07-21T12:18:02;5.97;;;3.28;;
68140;SDS011;54941;52.220;104.306;2022-07-21T12:20:43;7.80;;;3.40;;
68140;SDS011;54941;52.220;104.306;2022-07-21T12:23:29;6.47;;;3.65;;
68140;SDS011;54941;52.220;104.306;2022-07-21T12:25:57;6.30;;;3.90;;
68140;SDS011;54941;52.220;104.306;2022-07-21T12:28:43;5.68;;;3.22;;
68140;SDS011;54941;52.220;104.306;2022-07-21T12:31:15;5.20;;;3.28;;
68140;SDS011;54941;52.220;104.306;2022-07-21T12:33:42;12.32;;;6.57;;
68140;SDS011;54941;52.220;104.306;2022-07-21T12:36:09;8.02;;;5.00;;
68140;SDS011;54941;52.220;104.306;2022-07-21T12:38:36;7.50;;;5.00;;
68140;SDS011;54941;52.220;104.306;2022-07-21T12:41:08;12.13;;;5.90;;
68140;SDS011;54941;52.220;104.306;2022-07-21T12:43:35;10.80;;;5.82;;
68140;SDS011;54941;52.220;104.306;2022-07-21T12:46:03;8.35;;;5.18;;
68140;SDS011;54941;52.220;104.306;2022-07-21T12:48:35;8.80;;;6.00;;
68140;SDS011;54941;52.220;104.306;2022-07-21T12:51:03;6.82;;;4.85;;
68140;SDS011;54941;52.220;104.306;2022-07-21T12:53:32;7.72;;;5.30;;
68140;SDS011;54941;52.220;104.306;2022-07-21T12:56:00;8.57;;;6.22;;
68140;SDS011;54941;52.220;104.306;2022-07-21T12:58:27;8.20;;;5.80;;
68140;SDS011;54941;52.220;104.306;2022-07-21T13:00:57;7.90;;;5.47;;
68140;SDS011;54941;52.220;104.306;2022-07-21T13:03:23;7.63;;;4.65;;
68140;SDS011;54941;52.220;104.306;2022-07-21T13:05:49;7.88;;;4.97;;
68140;SDS011;54941;52.220;104.306;2022-07-21T13:08:15;10.85;;;6.22;;
68140;SDS011;54941;52.220;104.306;2022-07-21T13:10:42;12.50;;;8.20;;
68140;SDS011;54941;52.220;104.306;2022-07-21T13:13:10;14.05;;;8.45;;
68140;SDS011;54941;52.220;104.306;2022-07-21T13:15:36;10.43;;;6.72;;
68140;SDS011;54941;52.220;104.306;2022-07-21T13:18:02;12.30;;;6.75;;
68140;SDS011;54941;52.220;104.306;2022-07-21T13:20:31;12.48;;;6.80;;
68140;SDS011;54941;52.220;104.306;2022-07-21T13:22:57;13.05;;;7.88;;
68140;SDS011;54941;52.220;104.306;2022-07-21T13:25:23;10.10;;;6.90;;
68140;SDS011;54941;52.220;104.306;2022-07-21T13:27:49;12.13;;;7.65;;
68140;SDS011;54941;52.220;104.306;2022-07-21T13:30:16;11.00;;;7.18;;
68140;SDS011;54941;52.220;104.306;2022-07-21T13:32:42;12.55;;;6.28;;
68140;SDS011;54941;52.220;104.306;2022-07-21T13:35:11;9.63;;;6.07;;
68140;SDS011;54941;52.220;104.306;2022-07-21T13:37:38;9.13;;;5.80;;
68140;SDS011;54941;52.220;104.306;2022-07-21T13:40:04;9.30;;;5.75;;
68140;SDS011;54941;52.220;104.306;2022-07-21T13:42:34;13.07;;;6.13;;
68140;SDS011;54941;52.220;104.306;2022-07-21T13:45:00;12.90;;;6.55;;
68140;SDS011;54941;52.220;104.306;2022-07-21T13:47:28;10.32;;;6.15;;
68140;SDS011;54941;52.220;104.306;2022-07-21T13:49:55;24.50;;;12.85;;
68140;SDS011;54941;52.220;104.306;2022-07-21T13:52:21;11.60;;;6.72;;
68140;SDS011;54941;52.220;104.306;2022-07-21T13:54:47;9.88;;;5.97;;
68140;SDS011;54941;52.220;104.306;2022-07-21T13:57:13;8.80;;;5.60;;
68140;SDS011;54941;52.220;104.306;2022-07-21T13:59:39;10.27;;;6.95;;
68140;SDS011;54941;52.220;104.306;2022-07-21T14:02:05;16.33;;;9.63;;
68140;SDS011;54941;52.220;104.306;2022-07-21T14:04:31;15.48;;;8.38;;
68140;SDS011;54941;52.220;104.306;2022-07-21T14:06:58;24.77;;;15.23;;
68140;SDS011;54941;52.220;104.306;2022-07-21T14:09:24;20.63;;;13.82;;
68140;SDS011;54941;52.220;104.306;2022-07-21T14:11:50;10.77;;;6.68;;
68140;SDS011;54941;52.220;104.306;2022-07-21T14:14:16;6.32;;;4.13;;
68140;SDS011;54941;52.220;104.306;2022-07-21T14:16:43;10.05;;;6.18;;
68140;SDS011;54941;52.220;104.306;2022-07-21T14:19:09;13.23;;;8.15;;
68140;SDS011;54941;52.220;104.306;2022-07-21T14:21:35;12.93;;;8.10;;
68140;SDS011;54941;52.220;104.306;2022-07-21T14:24:02;11.65;;;7.13;;
68140;SDS011;54941;52.220;104.306;2022-07-21T14:26:28;10.07;;;6.75;;
68140;SDS011;54941;52.220;104.306;2022-07-21T14:28:54;9.25;;;5.75;;
68140;SDS011;54941;52.220;104.306;2022-07-21T14:31:20;8.48;;;5.07;;
68140;SDS011;54941;52.220;104.306;2022-07-21T14:33:46;8.18;;;5.43;;
68140;SDS011;54941;52.220;104.306;2022-07-21T14:36:12;9.15;;;6.07;;
68140;SDS011;54941;52.220;104.306;2022-07-21T14:38:41;8.13;;;5.40;;
68140;SDS011;54941;52.220;104.306;2022-07-21T14:41:07;9.20;;;5.53;;
68140;SDS011;54941;52.220;104.306;2022-07-21T14:43:33;9.55;;;4.95;;
68140;SDS011;54941;52.220;104.306;2022-07-21T14:45:59;10.00;;;5.50;;
68140;SDS011;54941;52.220;104.306;2022-07-21T14:48:25;10.82;;;5.32;;
68140;SDS011;54941;52.220;104.306;2022-07-21T14:50:52;9.00;;;5.80;;
68140;SDS011;54941;52.220;104.306;2022-07-21T14:53:18;10.27;;;5.72;;
68140;SDS011;54941;52.220;104.306;2022-07-21T14:55:44;9.75;;;5.55;;
68140;SDS011;54941;52.220;104.306;2022-07-21T14:58:10;11.45;;;5.55;;
68140;SDS011;54941;52.220;104.306;2022-07-21T15:00:37;10.15;;;6.20;;
68140;SDS011;54941;52.220;104.306;2022-07-21T15:03:03;9.80;;;6.50;;